Time;durP1;ratioP1;P1;durP2;ratioP2;P2;SDS_P1;SDS_P2;PMS_P1;PMS_P2;Temp;Humidity;BMP_temperature;BMP_pressure;BME280_temperature;BME280_humidity;BME280_pressure;Samples;Min_cycle;Max_cycle;Signal;HPM_P1;HPM_P2
2023/04/12 00:02:19;;;;;;;;;;;;;;;;;;5070456;28;7555;-62
2023/04/12 00:04:44;;;;;;;;;;;;;;;;;;5070931;28;7611;-62
2023/04/12 00:07:10;;;;;;;;;;;;;;;;;;5073976;28;7524;-62
2023/04/12 00:09:36;;;;;;;;;;;;;;;;;;5074091;28;7525;-62
2023/04/12 00:12:03;;;;;;;;;;;;;;;;;;5073838;28;7616;-62
2023/04/12 00:14:28;;;;;;;;;;;;;;;;;;5072430;28;7525;-62
2023/04/12 00:16:53;;;;;;;;;;;;;;;;;;5073824;28;7678;-62
2023/04/12 00:19:18;;;;;;;;;;;;;;;;;;5072530;28;7524;-62
2023/04/12 00:21:44;;;;;;;;;;;;;;;;;;5072275;28;7509;-62
2023/04/12 00:24:09;;;;;;;;;;;;;;;;;;5072715;28;7516;-62
2023/04/12 00:26:34;;;;;;;;;;;;;;;;;;5072176;28;7501;-61
2023/04/12 00:29:00;;;;;;;;;;;;;;;;;;5073632;28;7536;-61
2023/04/12 00:31:25;;;;;;;;;;;;;;;;;;5073252;28;7537;-61
2023/04/12 00:33:50;;;;;;;;;;;;;;;;;;5073420;28;7532;-61
2023/04/12 00:36:15;;;;;;;;;;;;;;;;;;5073342;28;7590;-62
2023/04/12 00:38:41;;;;;;;;;;;;;;;;;;5073540;28;7547;-61
2023/04/12 00:41:06;;;;;;;;;;;;;;;;;;5073175;28;7513;-61
2023/04/12 00:43:31;;;;;;;;;;;;;;;;;;5073357;28;7516;-61
2023/04/12 00:45:56;;;;;;;;;;;;;;;;;;5073134;28;7570;-62
2023/04/12 00:48:22;;;;;;;;;;;;;;;;;;5071133;28;7580;-62
2023/04/12 00:50:47;;;;;;;;;;;;;;;;;;5073022;28;7545;-62
2023/04/12 00:53:12;;;;;;;;;;;;;;;;;;5073103;28;7532;-62
2023/04/12 00:55:37;;;;;;;;;;;;;;;;;;5071586;28;7520;-62
2023/04/12 00:58:02;;;;;;;;;;;;;;;;;;5072984;28;7544;-62
2023/04/12 01:00:27;;;;;;;;;;;;;;;;;;5073004;28;7524;-62
2023/04/12 01:02:53;;;;;;;;;;;;;;;;;;5073010;28;7537;-62
2023/04/12 01:05:21;;;;;;;;;;;;;;;;;;5072887;28;7603;-63
2023/04/12 01:07:46;;;;;;;;;;;;;;;;;;5072702;28;7547;-62
2023/04/12 01:10:11;;;;;;;;;;;;;;;;;;5072565;28;7521;-63
2023/04/12 01:12:37;;;;;;;;;;;;;;;;;;5072711;28;7581;-62
2023/04/12 01:15:02;;;;;;;;;;;;;;;;;;5072664;28;7516;-62
2023/04/12 01:17:27;;;;;;;;;;;;;;;;;;5073019;28;7540;-62
2023/04/12 01:19:56;;;;;;;;;;;;;;;;;;5072645;28;8008;-62
2023/04/12 01:22:21;;;;;;;;;;;;;;;;;;5072808;28;8070;-62
2023/04/12 01:24:47;;;;;;;;;;;;;;;;;;5072765;28;8057;-63
2023/04/12 01:27:15;;;;;;;;;;;;;;;;;;5071780;28;7532;-62
2023/04/12 01:29:40;;;;;;;;;;;;;;;;;;5072396;28;7578;-62
2023/04/12 01:32:05;;;;;;;;;;;;;;;;;;5072490;28;7631;-62
2023/04/12 01:34:30;;;;;;;;;;;;;;;;;;5072230;28;7544;-63
2023/04/12 01:36:55;;;;;;;;;;;;;;;;;;5073073;28;7590;-63
2023/04/12 01:39:21;;;;;;;;;;;;;;;;;;5072332;28;7520;-62
2023/04/12 01:41:47;;;;;;;;;;;;;;;;;;5072178;28;7540;-62
2023/04/12 01:44:13;;;;;;;;;;;;;;;;;;5072400;28;8030;-61
2023/04/12 01:46:38;;;;;;;;;;;;;;;;;;5072110;28;7532;-61
2023/04/12 01:49:03;;;;;;;;;;;;;;;;;;5071874;28;7537;-61
2023/04/12 01:51:28;;;;;;;;;;;;;;;;;;5071995;28;7531;-61
2023/04/12 01:53:54;;;;;;;;;;;;;;;;;;5072130;28;7624;-61
2023/04/12 01:56:19;;;;;;;;;;;;;;;;;;5071855;28;7524;-62
2023/04/12 01:58:44;;;;;;;;;;;;;;;;;;5070642;28;7516;-61
2023/04/12 02:01:10;;;;;;;;;;;;;;;;;;5070581;28;7524;-62
2023/04/12 02:03:36;;;;;;;;;;;;;;;;;;5070499;28;7586;-61
2023/04/12 02:06:01;;;;;;;;;;;;;;;;;;5071104;28;7528;-61
2023/04/12 02:08:26;;;;;;;;;;;;;;;;;;5071650;28;7533;-62
2023/04/12 02:10:51;;;;;;;;;;;;;;;;;;5070323;28;7520;-62
2023/04/12 02:13:17;;;;;;;;;;;;;;;;;;5071483;28;7524;-62
2023/04/12 02:15:43;;;;;;;;;;;;;;;;;;5083079;22;7537;-69
2023/04/12 02:18:08;;;;;;;;;;;;;;;;;;5032974;28;7521;-69
2023/04/12 02:20:34;;;;;;;;;;;;;;;;;;5032858;28;7548;-68
2023/04/12 02:22:59;;;;;;;;;;;;;;;;;;5032865;28;7533;-66
2023/04/12 02:25:26;;;;;;;;;;;;;;;;;;5032192;28;7540;-67
2023/04/12 02:27:51;;;;;;;;;;;;;;;;;;5031007;28;7525;-68
2023/04/12 02:30:16;;;;;;;;;;;;;;;;;;5032453;28;7536;-67
2023/04/12 02:32:44;;;;;;;;;;;;;;;;;;5032766;28;7533;-68
2023/04/12 02:35:09;;;;;;;;;;;;;;;;;;5032650;28;7529;-69
2023/04/12 02:37:34;;;;;;;;;;;;;;;;;;5051964;28;7626;-68
2023/04/12 02:40:01;;;;;;;;;;;;;;;;;;5052501;28;7541;-68
2023/04/12 02:42:26;;;;;;;;;;;;;;;;;;5050642;28;7574;-68
2023/04/12 02:44:51;;;;;;;;;;;;;;;;;;5052499;28;7524;-70
2023/04/12 02:47:16;;;;;;;;;;;;;;;;;;5052345;28;7532;-68
2023/04/12 10:07:27;;;;;;;;;28.00;25.75;;;;;;;;5101766;27;1371780;-64
2023/04/12 10:09:53;;;;;;;;;27.00;24.50;;;;;;;;5146273;27;13556;-66
2023/04/12 10:12:18;;;;;;;;;29.00;23.75;;;;;;;;5127502;27;13495;-67
2023/04/12 10:51:27;;;;;;;;;19.00;18.00;;;;;;;;5104814;27;14636;-68
2023/04/12 10:54:08;;;;;;;;;15.75;14.25;;;;;;;;5108212;28;11470;-66
2023/04/12 10:56:34;;;;;;;;;18.75;14.25;;;;;;;;5107915;28;11412;-66
2023/04/12 10:59:00;;;;;;;;;20.00;20.00;;;;;;;;5107657;28;11467;-66
2023/04/12 11:01:26;;;;;;;;;19.00;14.25;;;;;;;;5108034;28;11586;-66
2023/04/12 11:04:13;;;;;;;;;17.75;14.25;;;;;;;;5108095;28;11553;-66
2023/04/12 11:06:49;;;;;;;;;17.00;14.75;;;;;;;;5108010;28;8776;-67
2023/04/12 11:09:17;;;;;;;;;15.50;14.00;;;;;;;;5107996;28;11544;-67
2023/04/12 11:11:43;;;;;;;;;13.00;13.00;;;;;;;;5107485;28;12153;-67
2023/04/12 11:14:12;;;;;;;;;10.25;9.00;;;;;;;;5107658;28;11567;-67
2023/04/12 11:16:55;;;;;;;;;13.50;8.25;;;;;;;;5108436;28;8784;-67
2023/04/12 11:19:21;;;;;;;;;6.75;4.00;;;;;;;;5107393;28;11426;-67
2023/04/12 16:56:40;;;;;;;;;3.25;2.75;;;;;;;;5058690;27;13382;-72
2023/04/12 16:59:06;;;;;;;;;4.00;4.00;;;;;;;;5087616;28;11436;-72
2023/04/12 17:01:33;;;;;;;;;2.75;2.00;;;;;;;;5088054;28;8807;-70
2023/04/12 17:03:59;;;;;;;;;2.00;2.00;;;;;;;;5071696;28;8797;-71
2023/04/12 17:06:26;;;;;;;;;3.25;3.25;;;;;;;;5014275;28;11550;-68
2023/04/12 17:08:51;;;;;;;;;4.00;3.00;;;;;;;;5055731;28;8829;-68
2023/04/12 17:11:16;;;;;;;;;2.50;2.00;;;;;;;;5066835;28;11106;-68
2023/04/12 17:13:43;;;;;;;;;3.00;3.00;;;;;;;;5062156;28;8825;-68
2023/04/12 17:16:08;;;;;;;;;1.25;1.00;;;;;;;;5038397;28;10044;-68
2023/04/12 17:18:35;;;;;;;;;7.00;6.00;;;;;;;;5027999;28;13446;-69
2023/04/12 17:21:00;;;;;;;;;4.50;4.50;;;;;;;;5031878;28;13618;-70
2023/04/12 17:23:26;;;;;;;;;4.33;4.33;;;;;;;;5032136;28;13555;-71
2023/04/12 17:25:51;;;;;;;;;10.00;8.00;;;;;;;;5031493;28;13582;-70
2023/04/12 17:28:16;;;;;;;;;3.00;3.00;;;;;;;;5033489;28;13601;-70
2023/04/12 17:30:41;;;;;;;;;8.00;4.33;;;;;;;;5031807;28;13493;-72
2023/04/12 17:33:07;;;;;;;;;9.00;7.50;;;;;;;;5032336;28;13505;-71
2023/04/12 17:35:32;;;;;;;;;7.75;7.75;;;;;;;;5032906;28;13500;-71
2023/04/12 17:37:57;;;;;;;;;7.75;5.00;;;;;;;;5036574;28;13478;-72
2023/04/12 17:40:23;;;;;;;;;6.75;5.50;;;;;;;;5063283;28;13441;-69
2023/04/12 17:42:48;;;;;;;;;4.67;4.67;;;;;;;;5056850;28;13418;-70
2023/04/12 17:45:14;;;;;;;;;8.00;5.67;;;;;;;;5043356;28;14997;-70
2023/04/12 17:47:41;;;;;;;;;6.50;5.00;;;;;;;;5043275;28;13705;-71
2023/04/12 17:50:09;;;;;;;;;6.00;6.00;;;;;;;;5043266;28;14048;-72
2023/04/12 17:52:35;;;;;;;;;8.00;6.50;;;;;;;;5041111;28;13523;-72
2023/04/12 17:55:02;;;;;;;;;8.00;7.00;;;;;;;;5055460;28;13456;-71
2023/04/12 17:57:27;;;;;;;;;7.20;5.00;;;;;;;;5062542;28;13469;-69
2023/04/12 17:59:52;;;;;;;;;5.00;5.00;;;;;;;;5062795;28;13503;-76
2023/04/12 18:02:18;;;;;;;;;7.00;7.00;;;;;;;;5062661;28;13519;-69
2023/04/12 18:04:44;;;;;;;;;8.25;4.25;;;;;;;;5062255;28;13444;-72
2023/04/12 18:07:10;;;;;;;;;6.60;6.60;;;;;;;;5043225;28;13573;-71
2023/04/12 18:09:37;;;;;;;;;9.00;8.00;;;;;;;;5049646;28;14167;-70
2023/04/12 18:12:02;;;;;;;;;10.75;10.75;;;;;;;;5049556;28;13420;-70
2023/04/12 18:14:28;;;;;;;;;9.50;9.00;;;;;;;;5042856;28;13568;-71
2023/04/12 18:16:53;;;;;;;;;11.40;10.00;;;;;;;;5017882;28;13568;-70
2023/04/12 18:19:19;;;;;;;;;9.25;9.25;;;;;;;;5009311;28;13553;-70
2023/04/12 18:21:47;;;;;;;;;11.00;9.67;;;;;;;;5009728;28;13456;-70
2023/04/12 18:24:12;;;;;;;;;8.00;8.00;;;;;;;;5009679;28;13576;-70
2023/04/12 18:26:38;;;;;;;;;10.25;9.00;;;;;;;;5009720;28;13473;-69
2023/04/12 18:29:03;;;;;;;;;10.25;10.00;;;;;;;;5009172;28;14284;-71
2023/04/12 18:31:28;;;;;;;;;13.33;13.33;;;;;;;;5007991;28;13579;-70
2023/04/12 18:33:53;;;;;;;;;8.00;8.00;;;;;;;;5009098;28;14236;-71
2023/04/12 18:36:18;;;;;;;;;11.67;9.00;;;;;;;;5017881;28;13488;-71
2023/04/12 18:38:44;;;;;;;;;9.00;8.00;;;;;;;;5044817;28;13479;-72
2023/04/12 18:41:16;;;;;;;;;7.00;7.00;;;;;;;;5041102;28;13482;-74
2023/04/12 18:43:41;;;;;;;;;10.50;7.25;;;;;;;;5028740;28;13412;-71
2023/04/12 18:46:07;;;;;;;;;8.00;8.00;;;;;;;;5025301;28;13539;-72
2023/04/12 18:48:32;;;;;;;;;12.00;8.75;;;;;;;;5042730;28;14228;-72
2023/04/12 18:50:58;;;;;;;;;8.75;8.75;;;;;;;;5041227;28;13606;-71
2023/04/12 18:53:24;;;;;;;;;13.33;13.00;;;;;;;;5028783;28;13590;-73
2023/04/12 18:55:49;;;;;;;;;13.00;12.25;;;;;;;;5028405;28;13661;-73
2023/04/12 18:58:15;;;;;;;;;12.00;12.00;;;;;;;;5028014;28;13623;-68
2023/04/12 19:00:40;;;;;;;;;17.50;15.00;;;;;;;;5026598;28;13542;-69
2023/04/12 19:03:06;;;;;;;;;14.25;13.00;;;;;;;;5028472;28;13569;-71
2023/04/12 19:05:31;;;;;;;;;12.40;12.40;;;;;;;;5028712;28;13549;-71
2023/04/12 19:07:57;;;;;;;;;11.75;6.00;;;;;;;;5033209;28;13661;-70
2023/04/12 19:10:26;;;;;;;;;6.75;5.00;;;;;;;;5031317;28;8905;-70
2023/04/12 19:12:52;;;;;;;;;7.00;7.00;;;;;;;;5031751;28;8851;-71
2023/04/12 19:15:17;;;;;;;;;24.50;22.50;;;;;;;;5025756;28;11198;-70
2023/04/12 19:17:43;;;;;;;;;45.25;36.50;;;;;;;;5026468;28;8926;-69
2023/04/12 19:20:09;;;;;;;;;8.50;8.50;;;;;;;;5028090;28;10041;-69
2023/04/12 19:22:35;;;;;;;;;9.25;9.25;;;;;;;;5030133;28;8823;-68
2023/04/12 19:25:00;;;;;;;;;11.00;8.50;;;;;;;;5032357;28;13598;-70
2023/04/12 19:27:26;;;;;;;;;10.50;10.25;;;;;;;;5031276;28;8808;-70
2023/04/12 19:29:51;;;;;;;;;6.00;6.00;;;;;;;;5031639;28;9576;-69
2023/04/12 19:32:17;;;;;;;;;9.50;7.75;;;;;;;;5029957;28;8800;-69
2023/04/12 19:34:43;;;;;;;;;5.50;5.50;;;;;;;;5031597;28;8841;-69
2023/04/12 19:37:08;;;;;;;;;8.00;8.00;;;;;;;;5031073;28;12185;-70
2023/04/12 19:39:34;;;;;;;;;6.25;6.25;;;;;;;;5046897;28;9632;-70
2023/04/12 19:42:01;;;;;;;;;8.00;6.00;;;;;;;;5029714;28;8819;-71
2023/04/12 19:44:26;;;;;;;;;9.00;8.00;;;;;;;;5031489;28;12190;-71
2023/04/12 19:46:52;;;;;;;;;8.25;8.25;;;;;;;;5031212;28;11432;-71
2023/04/12 19:49:18;;;;;;;;;8.00;8.00;;;;;;;;5030928;28;8804;-70
2023/04/12 19:51:44;;;;;;;;;5.50;4.00;;;;;;;;5029358;28;8928;-71
2023/04/12 19:54:09;;;;;;;;;11.00;9.00;;;;;;;;5031147;28;11404;-70
2023/04/12 19:56:36;;;;;;;;;9.75;8.25;;;;;;;;5030891;28;12208;-71
2023/04/12 19:59:04;;;;;;;;;10.75;9.00;;;;;;;;5030584;28;8872;-69
2023/04/12 20:01:29;;;;;;;;;9.00;9.00;;;;;;;;5028701;28;11438;-68
2023/04/12 20:03:54;;;;;;;;;12.75;9.00;;;;;;;;5030233;28;12187;-68
2023/04/12 20:06:20;;;;;;;;;10.75;9.00;;;;;;;;5045419;28;8885;-69
2023/04/12 20:08:45;;;;;;;;;7.00;7.00;;;;;;;;5028242;28;8800;-70
2023/04/12 20:11:12;;;;;;;;;9.75;6.00;;;;;;;;5029521;28;8926;-71
2023/04/12 20:13:38;;;;;;;;;5.75;5.75;;;;;;;;5030007;28;8946;-69
2023/04/12 20:16:04;;;;;;;;;5.50;5.50;;;;;;;;5026788;28;11577;-69
2023/04/12 20:18:29;;;;;;;;;8.75;5.00;;;;;;;;5029925;28;11546;-70
2023/04/12 20:20:58;;;;;;;;;9.00;7.50;;;;;;;;5030208;28;8823;-71
2023/04/12 20:23:24;;;;;;;;;8.25;7.50;;;;;;;;5030348;28;8816;-68
2023/04/12 20:25:50;;;;;;;;;8.00;6.75;;;;;;;;5027799;28;11538;-70
2023/04/12 20:28:15;;;;;;;;;12.00;8.25;;;;;;;;5044973;28;11450;-69
2023/04/12 20:30:41;;;;;;;;;7.75;7.75;;;;;;;;5029654;28;11451;-69
2023/04/12 20:33:07;;;;;;;;;10.50;9.00;;;;;;;;5030088;28;8873;-70
2023/04/12 20:35:33;;;;;;;;;10.50;9.00;;;;;;;;5028187;28;8869;-68
2023/04/12 20:37:59;;;;;;;;;12.25;11.00;;;;;;;;5029979;28;8804;-72
2023/04/12 20:40:28;;;;;;;;;11.75;8.25;;;;;;;;5029842;28;8835;-70
2023/04/12 20:42:54;;;;;;;;;12.00;9.00;;;;;;;;5029855;28;8915;-71
2023/04/12 20:45:20;;;;;;;;;10.25;8.50;;;;;;;;5027676;28;11455;-72
2023/04/12 20:47:47;;;;;;;;;8.50;7.25;;;;;;;;5029586;28;11524;-71
2023/04/12 20:50:12;;;;;;;;;8.75;8.50;;;;;;;;5028471;28;11479;-71
2023/04/12 20:52:38;;;;;;;;;9.50;8.00;;;;;;;;5029775;28;11462;-70
2023/04/12 20:55:04;;;;;;;;;6.00;6.00;;;;;;;;5027406;28;8866;-71
2023/04/12 20:57:30;;;;;;;;;8.50;8.00;;;;;;;;5029607;28;8796;-72
2023/04/12 20:59:55;;;;;;;;;12.25;7.00;;;;;;;;5029519;28;11519;-71
2023/04/12 21:02:20;;;;;;;;;9.25;8.00;;;;;;;;5029599;28;9658;-72
2023/04/12 21:04:46;;;;;;;;;13.75;9.00;;;;;;;;5027513;28;8916;-72
2023/04/12 21:07:11;;;;;;;;;8.25;8.00;;;;;;;;5029855;28;8815;-73
2023/04/12 21:09:37;;;;;;;;;8.00;8.00;;;;;;;;5029489;28;8905;-73
2023/04/12 21:12:07;;;;;;;;;11.25;8.50;;;;;;;;5028371;28;8799;-74
2023/04/12 21:14:33;;;;;;;;;8.25;8.00;;;;;;;;5027899;28;8934;-72
2023/04/12 21:16:59;;;;;;;;;9.75;9.75;;;;;;;;5029365;28;11473;-72
2023/04/12 21:19:24;;;;;;;;;15.25;12.50;;;;;;;;5029623;28;11442;-71
2023/04/12 21:21:50;;;;;;;;;11.50;9.00;;;;;;;;5028526;28;8820;-72
2023/04/12 21:24:16;;;;;;;;;13.00;13.00;;;;;;;;5027452;28;8939;-72
2023/04/12 21:26:42;;;;;;;;;18.25;13.00;;;;;;;;5029226;28;8828;-71
2023/04/12 21:29:08;;;;;;;;;15.25;13.50;;;;;;;;5029336;28;11611;-71
2023/04/12 21:31:35;;;;;;;;;12.50;10.25;;;;;;;;5029374;28;8804;-71
2023/04/12 21:34:01;;;;;;;;;12.00;12.00;;;;;;;;5029034;28;8823;-71
2023/04/12 21:36:29;;;;;;;;;13.00;9.75;;;;;;;;5027851;28;11559;-70
2023/04/12 21:38:55;;;;;;;;;12.75;12.00;;;;;;;;5029575;28;8808;-70
2023/04/12 21:41:20;;;;;;;;;13.75;12.00;;;;;;;;5030183;28;11523;-70
2023/04/12 21:43:47;;;;;;;;;13.75;11.50;;;;;;;;5033564;28;8808;-70
2023/04/12 21:46:12;;;;;;;;;18.75;17.50;;;;;;;;5033607;28;8803;-70
2023/04/12 21:48:38;;;;;;;;;19.00;13.00;;;;;;;;5033441;28;11542;-69
2023/04/12 21:51:03;;;;;;;;;14.00;12.00;;;;;;;;5033374;28;8862;-69
2023/04/12 21:53:28;;;;;;;;;13.00;12.00;;;;;;;;5033553;28;8784;-71
2023/04/12 21:55:54;;;;;;;;;14.25;12.75;;;;;;;;5046168;28;9558;-71
2023/04/12 21:58:19;;;;;;;;;14.00;14.00;;;;;;;;5022609;28;9542;-71
2023/04/12 22:00:45;;;;;;;;;13.75;11.75;;;;;;;;5013950;28;8806;-71
2023/04/12 22:03:11;;;;;;;;;15.50;13.00;;;;;;;;5013895;28;8794;-71
2023/04/12 22:05:38;;;;;;;;;15.25;13.75;;;;;;;;5013651;28;11554;-71
2023/04/12 22:08:04;;;;;;;;;14.00;13.25;;;;;;;;5013574;28;8802;-71
2023/04/12 22:10:32;;;;;;;;;12.00;12.00;;;;;;;;5012217;28;11572;-71
2023/04/12 22:12:58;;;;;;;;;13.25;12.00;;;;;;;;5013685;28;8810;-71
2023/04/12 22:15:23;;;;;;;;;13.00;11.25;;;;;;;;5013596;28;11667;-71
2023/04/12 22:17:48;;;;;;;;;10.75;9.00;;;;;;;;5013513;28;8796;-71
2023/04/12 22:20:14;;;;;;;;;11.50;11.50;;;;;;;;5013463;28;8889;-71
2023/04/12 22:22:39;;;;;;;;;12.75;11.25;;;;;;;;5013418;28;8837;-71
2023/04/12 22:25:06;;;;;;;;;11.25;11.25;;;;;;;;5013650;28;8825;-71
2023/04/12 22:27:31;;;;;;;;;12.00;10.50;;;;;;;;5013544;28;8811;-71
2023/04/12 22:29:57;;;;;;;;;9.00;9.00;;;;;;;;5013351;28;11437;-71
2023/04/12 22:32:22;;;;;;;;;8.00;7.25;;;;;;;;5013430;28;8813;-71
2023/04/12 22:34:49;;;;;;;;;12.75;10.00;;;;;;;;5013218;28;8927;-72
2023/04/12 22:37:14;;;;;;;;;9.00;8.75;;;;;;;;5013224;28;8848;-70
2023/04/12 22:39:39;;;;;;;;;10.50;7.00;;;;;;;;5013072;28;11472;-72
2023/04/12 22:42:05;;;;;;;;;9.00;7.00;;;;;;;;5013076;28;8820;-71
2023/04/12 22:44:37;;;;;;;;;6.00;6.00;;;;;;;;5013169;28;9565;-71
2023/04/12 22:47:03;;;;;;;;;11.50;9.00;;;;;;;;5013012;28;8903;-70
2023/04/12 22:49:29;;;;;;;;;7.50;7.00;;;;;;;;5012876;28;11532;-70
2023/04/12 22:51:55;;;;;;;;;7.50;7.00;;;;;;;;5012702;28;11469;-70
2023/04/12 22:54:20;;;;;;;;;6.50;6.50;;;;;;;;5012469;28;11480;-71
2023/04/12 22:56:46;;;;;;;;;3.00;3.00;;;;;;;;5012852;28;8826;-71
2023/04/12 22:59:15;;;;;;;;;5.50;5.50;;;;;;;;5012761;28;8829;-71
2023/04/12 23:01:40;;;;;;;;;7.50;6.75;;;;;;;;5011494;28;8941;-71
2023/04/12 23:04:06;;;;;;;;;7.00;6.75;;;;;;;;5012833;28;11704;-71
2023/04/12 23:06:31;;;;;;;;;5.00;4.00;;;;;;;;5012707;28;8810;-70
2023/04/12 23:09:00;;;;;;;;;6.00;6.00;;;;;;;;5012584;28;8909;-71
2023/04/12 23:11:27;;;;;;;;;7.00;6.25;;;;;;;;5012684;28;8790;-70
2023/04/12 23:13:53;;;;;;;;;4.00;4.00;;;;;;;;5012558;28;12170;-70
2023/04/12 23:16:19;;;;;;;;;6.25;6.25;;;;;;;;5012271;28;11507;-69
2023/04/12 23:18:44;;;;;;;;;7.75;7.00;;;;;;;;5011017;28;8814;-70
2023/04/12 23:21:10;;;;;;;;;8.25;6.25;;;;;;;;5012360;28;8779;-71
2023/04/12 23:23:36;;;;;;;;;7.00;6.00;;;;;;;;5012544;28;8842;-70
2023/04/12 23:26:01;;;;;;;;;7.00;7.00;;;;;;;;5012088;28;12212;-71
2023/04/12 23:28:27;;;;;;;;;6.75;6.00;;;;;;;;5012289;28;8902;-71
2023/04/12 23:30:52;;;;;;;;;8.00;4.00;;;;;;;;5012244;28;8802;-70
2023/04/12 23:33:19;;;;;;;;;8.00;4.50;;;;;;;;5011924;28;9555;-72
2023/04/12 23:35:45;;;;;;;;;7.25;7.25;;;;;;;;5012428;28;8826;-72
2023/04/12 23:38:14;;;;;;;;;6.00;4.00;;;;;;;;5012065;28;11562;-72
2023/04/12 23:40:39;;;;;;;;;4.50;4.00;;;;;;;;5012099;28;11377;-72
2023/04/12 23:43:06;;;;;;;;;4.00;4.00;;;;;;;;5011995;28;11424;-72
2023/04/12 23:45:32;;;;;;;;;6.75;4.00;;;;;;;;5011978;28;8815;-72
2023/04/12 23:47:57;;;;;;;;;6.50;6.50;;;;;;;;5011786;28;11440;-72
2023/04/12 23:50:23;;;;;;;;;6.75;6.75;;;;;;;;5010636;28;9768;-72
2023/04/12 23:52:48;;;;;;;;;9.50;7.75;;;;;;;;5011750;28;8809;-72
2023/04/12 23:55:13;;;;;;;;;7.25;7.25;;;;;;;;5011568;28;8850;-72
2023/04/12 23:57:39;;;;;;;;;9.25;6.50;;;;;;;;5011757;28;8856;-72
